Time,TemperatureF,DewpointF,PressureIn,WindDirection,WindDirectionDegrees,WindSpeedMPH,WindSpeedGustMPH,Humidity,HourlyPrecipIn,Conditions,Clouds,dailyrainin,SoftwareType,DateUTC
2013-02-03 00:01:00,45.1,36.9,29.38,South,180,6.2,16.5,73,0.00,,,0.05,,2013-02-02 23:01:00,
2013-02-03 00:06:00,45.3,37.4,29.41,West,270,2.2,3.5,74,0.00,,,0.00,,2013-02-02 23:06:00,
2013-02-03 00:11:00,45.3,37.4,29.41,SW,225,3.1,5.3,74,0.00,,,0.00,,2013-02-02 23:11:00,
2013-02-03 00:16:00,45.3,37.4,29.38,WNW,292,3.1,10.2,74,0.00,,,0.00,,2013-02-02 23:16:00,
2013-02-03 00:21:00,45.1,37.6,29.38,WSW,247,6.7,8.9,75,0.00,,,0.00,,2013-02-02 23:21:00,
2013-02-03 00:26:00,44.8,37.6,29.38,South,180,4.9,4.9,76,0.00,,,0.00,,2013-02-02 23:26:00,
2013-02-03 00:31:00,44.6,37.4,29.38,SW,225,5.8,5.8,76,0.00,,,0.00,,2013-02-02 23:31:00,
2013-02-03 00:36:00,44.6,37.8,29.38,SW,225,3.1,8.9,77,0.00,,,0.00,,2013-02-02 23:36:00,
2013-02-03 00:41:00,44.4,37.9,29.38,South,180,6.2,8.0,78,0.00,,,0.00,,2013-02-02 23:41:00,
2013-02-03 00:46:00,44.4,37.9,29.38,SW,225,5.3,5.8,78,0.00,,,0.00,,2013-02-02 23:46:00,
2013-02-03 00:51:00,43.5,36.7,29.38,SSW,202,7.1,12.0,77,0.04,,,0.04,,2013-02-02 23:51:00,
2013-02-03 00:56:00,43.2,37.0,29.41,SW,225,4.9,4.9,79,0.04,,,0.04,,2013-02-02 23:56:00,
2013-02-03 01:01:00,43.2,37.4,29.41,West,270,2.6,2.6,80,0.04,,,0.04,,2013-02-03 00:01:00,
2013-02-03 01:06:00,43.2,37.6,29.38,WSW,247,6.2,16.5,81,0.00,,,0.04,,2013-02-03 00:06:00,
2013-02-03 01:11:00,43.2,37.6,29.38,SW,225,4.0,8.5,81,0.00,,,0.04,,2013-02-03 00:11:00,
2013-02-03 01:16:00,42.6,37.0,29.38,South,180,9.3,16.1,81,0.02,,,0.06,,2013-02-03 00:16:00,
2013-02-03 01:21:00,42.4,37.2,29.38,SSW,202,5.3,10.7,82,0.02,,,0.06,,2013-02-03 00:21:00,
2013-02-03 01:26:00,42.3,37.4,29.41,SW,225,3.1,7.6,83,0.02,,,0.06,,2013-02-03 00:26:00,
2013-02-03 01:31:00,42.1,37.2,29.41,South,180,5.3,8.0,83,0.02,,,0.06,,2013-02-03 00:31:00,
2013-02-03 01:36:00,42.1,37.6,29.41,SSE,157,3.1,3.5,84,0.02,,,0.06,,2013-02-03 00:36:00,
2013-02-03 01:41:00,42.1,37.6,29.41,SSE,157,3.1,7.6,84,0.05,,,0.09,,2013-02-03 00:41:00,
2013-02-03 01:46:00,42.3,37.8,29.41,SE,135,2.2,2.6,84,0.05,,,0.09,,2013-02-03 00:46:00,
2013-02-03 01:51:00,42.3,37.8,29.41,South,180,0.8,3.5,84,0.05,,,0.09,,2013-02-03 00:51:00,
2013-02-03 01:56:00,42.4,37.9,29.41,South,180,2.6,4.4,84,0.05,,,0.09,,2013-02-03 00:56:00,
2013-02-03 02:01:00,42.6,38.1,29.41,ESE,112,2.6,6.2,84,0.05,,,0.09,,2013-02-03 01:01:00,
2013-02-03 02:06:00,43.0,38.3,29.41,SW,225,2.6,4.4,84,0.00,,,0.09,,2013-02-03 01:06:00,
2013-02-03 02:11:00,43.2,37.9,29.41,ESE,112,3.1,8.5,82,0.00,,,0.09,,2013-02-03 01:11:00,
2013-02-03 02:16:00,43.3,37.8,29.41,West,270,3.5,4.4,81,0.00,,,0.09,,2013-02-03 01:16:00,
2013-02-03 02:21:00,43.5,37.6,29.41,South,180,3.1,3.5,80,0.00,,,0.09,,2013-02-03 01:21:00,
2013-02-03 02:26:00,43.5,37.4,29.41,SSW,202,4.0,6.2,79,0.00,,,0.09,,2013-02-03 01:26:00,
2013-02-03 02:31:00,43.5,37.4,29.41,South,180,3.1,4.4,79,0.00,,,0.09,,2013-02-03 01:31:00,
2013-02-03 02:36:00,43.7,37.2,29.41,SW,225,5.3,10.7,78,0.00,,,0.09,,2013-02-03 01:36:00,
2013-02-03 02:41:00,43.7,36.9,29.41,South,180,5.3,8.9,77,0.00,,,0.09,,2013-02-03 01:41:00,
2013-02-03 02:46:00,43.7,36.5,29.38,SSW,202,4.9,5.8,76,0.00,,,0.09,,2013-02-03 01:46:00,
2013-02-03 02:51:00,43.7,36.5,29.38,West,270,2.6,5.3,76,0.00,,,0.09,,2013-02-03 01:51:00,
2013-02-03 02:56:00,43.7,36.5,29.41,SSW,202,4.9,6.7,76,0.00,,,0.09,,2013-02-03 01:56:00,
2013-02-03 03:01:00,43.9,36.7,29.41,NW,315,4.0,4.0,76,0.00,,,0.09,,2013-02-03 02:01:00,
2013-02-03 03:06:00,43.9,36.7,29.41,East,90,3.1,3.5,76,0.00,,,0.09,,2013-02-03 02:06:00,
2013-02-03 03:11:00,43.7,36.5,29.41,SE,135,2.6,4.9,76,0.00,,,0.09,,2013-02-03 02:11:00,
2013-02-03 03:16:00,43.7,36.1,29.38,SSW,202,3.1,3.1,75,0.00,,,0.09,,2013-02-03 02:16:00,
2013-02-03 03:21:00,43.5,35.6,29.38,South,180,3.1,5.8,74,0.00,,,0.09,,2013-02-03 02:21:00,
2013-02-03 03:26:00,43.5,35.6,29.41,ESE,112,3.5,6.2,74,0.00,,,0.09,,2013-02-03 02:26:00,
2013-02-03 03:31:00,43.5,35.6,29.41,ESE,112,2.2,8.5,74,0.00,,,0.09,,2013-02-03 02:31:00,
2013-02-03 03:36:00,43.5,35.6,29.41,SW,225,3.1,5.3,74,0.00,,,0.09,,2013-02-03 02:36:00,
2013-02-03 03:41:00,43.5,35.4,29.41,SSE,157,1.3,1.3,73,0.00,,,0.09,,2013-02-03 02:41:00,
2013-02-03 03:46:00,43.5,35.4,29.41,SW,225,3.5,3.5,73,0.00,,,0.09,,2013-02-03 02:46:00,
2013-02-03 03:51:00,43.5,35.6,29.41,East,90,2.2,4.9,74,0.00,,,0.09,,2013-02-03 02:51:00,
2013-02-03 03:56:00,43.7,35.6,29.41,South,180,4.4,8.0,73,0.00,,,0.09,,2013-02-03 02:56:00,
2013-02-03 04:01:00,43.7,35.6,29.41,SSW,202,3.5,4.9,73,0.00,,,0.09,,2013-02-03 03:01:00,
2013-02-03 04:06:00,43.7,35.6,29.41,SE,135,1.7,1.7,73,0.00,,,0.09,,2013-02-03 03:06:00,
2013-02-03 04:11:00,43.7,35.6,29.41,NE,45,3.1,3.1,73,0.00,,,0.09,,2013-02-03 03:11:00,
2013-02-03 04:16:00,43.7,35.6,29.41,SSE,157,4.0,8.5,73,0.00,,,0.09,,2013-02-03 03:16:00,
2013-02-03 04:21:00,43.5,35.6,29.41,NE,45,5.8,10.2,74,0.00,,,0.09,,2013-02-03 03:21:00,
2013-02-03 04:26:00,42.8,36.0,29.41,ESE,112,7.1,12.9,77,0.00,,,0.09,,2013-02-03 03:26:00,
2013-02-03 04:31:00,42.1,35.6,29.41,ENE,67,5.3,8.0,78,0.00,,,0.09,,2013-02-03 03:31:00,
2013-02-03 04:36:00,41.7,36.0,29.44,ESE,112,4.0,4.0,80,0.02,,,0.11,,2013-02-03 03:36:00,
2013-02-03 04:41:00,41.5,35.8,29.44,ENE,67,4.0,5.8,80,0.02,,,0.11,,2013-02-03 03:41:00,
2013-02-03 04:46:00,41.5,36.3,29.41,ESE,112,4.0,7.6,82,0.02,,,0.11,,2013-02-03 03:46:00,
2013-02-03 04:51:00,41.7,36.5,29.41,SE,135,3.5,4.4,82,0.02,,,0.11,,2013-02-03 03:51:00,
2013-02-03 04:56:00,41.7,36.1,29.41,ESE,112,3.1,7.6,81,0.02,,,0.11,,2013-02-03 03:56:00,
2013-02-03 05:01:00,41.7,36.1,29.41,ESE,112,5.3,10.2,81,0.02,,,0.11,,2013-02-03 04:01:00,
2013-02-03 05:06:00,41.4,36.0,29.41,SW,225,5.3,6.7,81,0.00,,,0.11,,2013-02-03 04:06:00,
2013-02-03 05:11:00,41.2,36.0,29.41,SE,135,4.0,4.4,82,0.02,,,0.13,,2013-02-03 04:11:00,
2013-02-03 05:16:00,41.2,36.3,29.44,SSE,157,4.0,4.0,83,0.02,,,0.13,,2013-02-03 04:16:00,
2013-02-03 05:21:00,41.2,36.3,29.44,SSW,202,4.0,8.0,83,0.04,,,0.15,,2013-02-03 04:21:00,
2013-02-03 05:26:00,41.2,36.3,29.44,WSW,247,3.1,3.5,83,0.06,,,0.17,,2013-02-03 04:26:00,
2013-02-03 05:31:00,41.2,36.7,29.44,SE,135,2.2,3.5,84,0.06,,,0.17,,2013-02-03 04:31:00,
2013-02-03 05:36:00,41.2,36.7,29.44,East,90,3.5,7.6,84,0.06,,,0.17,,2013-02-03 04:36:00,
2013-02-03 05:41:00,41.2,36.9,29.44,SSE,157,3.5,5.8,85,0.06,,,0.17,,2013-02-03 04:41:00,
2013-02-03 05:46:00,41.2,36.9,29.44,SE,135,4.0,6.7,85,0.06,,,0.17,,2013-02-03 04:46:00,
2013-02-03 05:51:00,41.0,36.5,29.44,ESE,112,2.6,6.2,84,0.06,,,0.17,,2013-02-03 04:51:00,
2013-02-03 05:56:00,41.0,36.5,29.44,SE,135,3.1,3.1,84,0.06,,,0.17,,2013-02-03 04:56:00,
2013-02-03 06:01:00,40.8,36.3,29.44,East,90,3.5,4.0,84,0.06,,,0.17,,2013-02-03 05:01:00,
2013-02-03 06:06:00,40.8,36.3,29.47,ESE,112,4.9,6.2,84,0.00,,,0.17,,2013-02-03 05:06:00,
2013-02-03 06:11:00,40.8,36.3,29.47,ENE,67,4.0,6.2,84,0.00,,,0.17,,2013-02-03 05:11:00,
2013-02-03 06:16:00,40.6,36.1,29.44,ENE,67,5.3,5.3,84,0.00,,,0.17,,2013-02-03 05:16:00,
2013-02-03 06:21:00,40.5,36.0,29.44,NE,45,3.1,8.5,84,0.00,,,0.17,,2013-02-03 05:21:00,
2013-02-03 06:26:00,40.5,36.0,29.44,ESE,112,5.3,6.7,84,0.00,,,0.17,,2013-02-03 05:26:00,
2013-02-03 06:31:00,40.5,36.0,29.44,East,90,4.4,11.6,84,0.00,,,0.17,,2013-02-03 05:31:00,
2013-02-03 06:36:00,40.5,36.0,29.44,NE,45,4.4,6.7,84,0.00,,,0.17,,2013-02-03 05:36:00,
2013-02-03 06:41:00,40.3,35.8,29.44,NE,45,4.0,6.2,84,0.00,,,0.17,,2013-02-03 05:41:00,
2013-02-03 06:46:00,40.3,35.8,29.47,NE,45,4.0,8.0,84,0.00,,,0.17,,2013-02-03 05:46:00,
2013-02-03 06:51:00,40.3,35.8,29.47,East,90,6.2,10.7,84,0.00,,,0.17,,2013-02-03 05:51:00,
2013-02-03 06:56:00,40.3,35.8,29.47,East,90,6.2,8.5,84,0.03,,,0.20,,2013-02-03 05:56:00,
2013-02-03 07:01:00,40.3,35.8,29.47,ENE,67,5.3,6.2,84,0.03,,,0.20,,2013-02-03 06:01:00,
2013-02-03 07:06:00,40.3,35.8,29.47,ENE,67,4.0,8.9,84,0.00,,,0.20,,2013-02-03 06:06:00,
2013-02-03 07:11:00,40.3,35.8,29.47,ESE,112,4.9,6.2,84,0.00,,,0.20,,2013-02-03 06:11:00,
2013-02-03 07:16:00,40.1,35.6,29.47,East,90,5.8,6.7,84,0.00,,,0.20,,2013-02-03 06:16:00,
2013-02-03 07:21:00,40.1,35.8,29.47,East,90,7.6,12.0,85,0.00,,,0.20,,2013-02-03 06:21:00,
2013-02-03 07:26:00,40.1,35.8,29.47,East,90,6.7,10.2,85,0.00,,,0.20,,2013-02-03 06:26:00,
2013-02-03 07:31:00,40.1,35.8,29.47,ENE,67,7.6,9.8,85,0.00,,,0.20,,2013-02-03 06:31:00,
2013-02-03 07:36:00,40.1,35.6,29.50,East,90,7.6,10.7,84,0.00,,,0.20,,2013-02-03 06:36:00,
2013-02-03 07:41:00,40.1,35.6,29.50,NE,45,5.8,7.6,84,0.00,,,0.20,,2013-02-03 06:41:00,
2013-02-03 07:46:00,40.3,35.8,29.50,East,90,5.3,6.2,84,0.00,,,0.20,,2013-02-03 06:46:00,
2013-02-03 07:51:00,40.5,36.0,29.50,ENE,67,5.8,8.9,84,0.00,,,0.20,,2013-02-03 06:51:00,
2013-02-03 07:56:00,40.6,36.1,29.50,NE,45,5.8,5.8,84,0.00,,,0.20,,2013-02-03 06:56:00,
2013-02-03 08:01:00,40.6,35.8,29.50,NNE,22,7.1,7.6,83,0.00,,,0.20,,2013-02-03 07:01:00,
2013-02-03 08:06:00,40.6,35.8,29.50,NE,45,6.7,6.7,83,0.00,,,0.20,,2013-02-03 07:06:00,
2013-02-03 08:11:00,40.8,35.6,29.50,NE,45,5.3,5.3,82,0.00,,,0.20,,2013-02-03 07:11:00,
2013-02-03 08:16:00,41.2,36.0,29.50,East,90,5.8,9.3,82,0.00,,,0.20,,2013-02-03 07:16:00,
2013-02-03 08:21:00,41.7,35.6,29.50,ENE,67,7.6,12.0,79,0.00,,,0.20,,2013-02-03 07:21:00,
2013-02-03 08:26:00,42.1,36.0,29.50,NNE,22,3.5,7.6,79,0.00,,,0.20,,2013-02-03 07:26:00,
2013-02-03 08:31:00,42.1,36.0,29.50,NE,45,3.5,3.5,79,0.00,,,0.20,,2013-02-03 07:31:00,
2013-02-03 08:36:00,42.4,36.3,29.50,NE,45,4.4,5.3,79,0.00,,,0.20,,2013-02-03 07:36:00,
2013-02-03 08:41:00,43.2,36.7,29.50,NE,45,6.2,6.2,78,0.00,,,0.20,,2013-02-03 07:41:00,
2013-02-03 08:46:00,43.7,37.2,29.50,ESE,112,3.1,4.0,78,0.00,,,0.20,,2013-02-03 07:46:00,
2013-02-03 08:51:00,43.7,36.5,29.50,East,90,2.2,4.0,76,0.00,,,0.20,,2013-02-03 07:51:00,
2013-02-03 08:56:00,43.9,36.7,29.53,NE,45,4.4,11.6,76,0.00,,,0.20,,2013-02-03 07:56:00,
2013-02-03 09:01:00,43.9,36.3,29.53,NE,45,3.1,3.5,75,0.00,,,0.20,,2013-02-03 08:01:00,
2013-02-03 09:06:00,43.9,36.7,29.53,ENE,67,2.2,4.0,76,0.00,,,0.20,,2013-02-03 08:06:00,
2013-02-03 09:11:00,43.9,36.7,29.53,East,90,3.5,4.0,76,0.00,,,0.20,,2013-02-03 08:11:00,
2013-02-03 09:16:00,44.1,36.9,29.53,East,90,3.5,8.9,76,0.00,,,0.20,,2013-02-03 08:16:00,
2013-02-03 09:21:00,44.1,36.5,29.53,NNE,22,4.0,4.0,75,0.00,,,0.20,,2013-02-03 08:21:00,
2013-02-03 09:26:00,44.2,36.7,29.53,NE,45,3.1,5.3,75,0.00,,,0.20,,2013-02-03 08:26:00,
2013-02-03 09:31:00,44.2,36.7,29.53,NE,45,4.4,5.8,75,0.00,,,0.20,,2013-02-03 08:31:00,
2013-02-03 09:36:00,44.2,36.7,29.53,NE,45,3.1,3.1,75,0.00,,,0.20,,2013-02-03 08:36:00,
2013-02-03 09:41:00,44.2,36.7,29.53,NE,45,3.5,3.5,75,0.00,,,0.20,,2013-02-03 08:41:00,
2013-02-03 09:46:00,44.2,37.0,29.53,NE,45,2.6,4.9,76,0.00,,,0.20,,2013-02-03 08:46:00,
2013-02-03 09:51:00,44.1,36.9,29.53,ENE,67,4.0,6.7,76,0.00,,,0.20,,2013-02-03 08:51:00,
2013-02-03 09:56:00,44.1,36.9,29.55,ENE,67,4.4,9.3,76,0.00,,,0.20,,2013-02-03 08:56:00,
2013-02-03 10:01:00,44.1,36.9,29.55,ENE,67,4.0,6.2,76,0.00,,,0.20,,2013-02-03 09:01:00,
2013-02-03 10:06:00,43.9,36.7,29.55,NE,45,4.4,6.2,76,0.00,,,0.20,,2013-02-03 09:06:00,
2013-02-03 10:11:00,43.7,36.9,29.55,ENE,67,3.5,11.6,77,0.00,,,0.20,,2013-02-03 09:11:00,
2013-02-03 10:16:00,43.7,36.9,29.58,NE,45,3.5,4.9,77,0.00,,,0.20,,2013-02-03 09:16:00,
2013-02-03 10:21:00,43.7,36.9,29.58,South,180,6.7,9.3,77,0.00,,,0.20,,2013-02-03 09:21:00,
2013-02-03 10:26:00,44.2,37.4,29.55,ENE,67,4.9,8.0,77,0.00,,,0.20,,2013-02-03 09:26:00,
2013-02-03 10:31:00,44.6,37.4,29.55,East,90,6.7,10.7,76,0.00,,,0.20,,2013-02-03 09:31:00,
2013-02-03 10:36:00,44.4,36.9,29.55,ENE,67,6.7,12.0,75,0.00,,,0.20,,2013-02-03 09:36:00,
2013-02-03 10:41:00,44.6,37.0,29.55,NE,45,4.4,5.8,75,0.00,,,0.20,,2013-02-03 09:41:00,
2013-02-03 10:46:00,44.6,37.0,29.58,NE,45,4.4,4.4,75,0.00,,,0.20,,2013-02-03 09:46:00,
2013-02-03 10:51:00,44.4,36.9,29.58,NE,45,4.9,10.2,75,0.00,,,0.20,,2013-02-03 09:51:00,
2013-02-03 10:56:00,44.4,36.9,29.61,NE,45,3.1,4.4,75,0.00,,,0.20,,2013-02-03 09:56:00,
2013-02-03 11:01:00,44.4,36.9,29.61,NE,45,6.7,8.0,75,0.00,,,0.20,,2013-02-03 10:01:00,
2013-02-03 11:06:00,44.2,37.0,29.61,East,90,5.8,10.2,76,0.00,,,0.20,,2013-02-03 10:06:00,
2013-02-03 11:11:00,43.9,37.0,29.61,ENE,67,4.9,8.5,77,0.00,,,0.20,,2013-02-03 10:11:00,
2013-02-03 11:16:00,43.7,37.2,29.61,SE,135,4.0,4.4,78,0.00,,,0.20,,2013-02-03 10:16:00,
2013-02-03 11:21:00,43.7,37.2,29.61,ENE,67,4.4,4.4,78,0.00,,,0.20,,2013-02-03 10:21:00,
2013-02-03 11:26:00,43.5,37.0,29.61,NNE,22,4.9,8.0,78,0.02,,,0.22,,2013-02-03 10:26:00,
2013-02-03 11:31:00,43.3,37.2,29.61,NNE,22,3.1,6.7,79,0.02,,,0.22,,2013-02-03 10:31:00,
2013-02-03 11:36:00,43.3,37.6,29.64,NE,45,2.2,2.2,80,0.02,,,0.22,,2013-02-03 10:36:00,
2013-02-03 11:41:00,43.3,38.1,29.64,NNE,22,4.0,5.8,82,0.02,,,0.22,,2013-02-03 10:41:00,
2013-02-03 11:46:00,43.5,38.3,29.61,NE,45,5.8,8.0,82,0.02,,,0.22,,2013-02-03 10:46:00,
2013-02-03 11:51:00,43.7,38.8,29.61,NE,45,3.5,8.0,83,0.02,,,0.22,,2013-02-03 10:51:00,
2013-02-03 11:56:00,44.1,38.8,29.64,NE,45,5.8,6.7,82,0.02,,,0.22,,2013-02-03 10:56:00,
2013-02-03 12:01:00,44.4,38.5,29.64,NE,45,6.2,8.9,80,0.02,,,0.22,,2013-02-03 11:01:00,
2013-02-03 12:06:00,44.6,38.5,29.64,ENE,67,5.3,5.3,79,0.00,,,0.22,,2013-02-03 11:06:00,
2013-02-03 12:11:00,44.8,38.7,29.64,ENE,67,4.4,4.4,79,0.00,,,0.22,,2013-02-03 11:11:00,
2013-02-03 12:16:00,45.1,38.7,29.64,NE,45,3.1,4.0,78,0.00,,,0.22,,2013-02-03 11:16:00,
2013-02-03 12:21:00,45.3,38.8,29.64,ENE,67,4.0,4.9,78,0.00,,,0.22,,2013-02-03 11:21:00,
2013-02-03 12:26:00,45.3,38.8,29.64,NE,45,1.3,4.0,78,0.00,,,0.22,,2013-02-03 11:26:00,
2013-02-03 12:31:00,45.5,38.7,29.64,NE,45,3.1,8.0,77,0.00,,,0.22,,2013-02-03 11:31:00,
2013-02-03 12:36:00,45.5,38.7,29.67,NE,45,5.3,5.8,77,0.00,,,0.22,,2013-02-03 11:36:00,
2013-02-03 12:41:00,45.7,38.8,29.67,NE,45,4.0,4.0,77,0.00,,,0.22,,2013-02-03 11:41:00,
2013-02-03 12:46:00,45.9,38.7,29.64,NNE,22,3.5,4.9,76,0.00,,,0.22,,2013-02-03 11:46:00,
2013-02-03 12:51:00,45.9,38.3,29.64,East,90,3.5,3.5,75,0.00,,,0.22,,2013-02-03 11:51:00,
2013-02-03 12:56:00,46.0,38.1,29.67,NE,45,2.6,7.6,74,0.00,,,0.22,,2013-02-03 11:56:00,
2013-02-03 13:01:00,46.0,38.1,29.67,ENE,67,2.2,4.0,74,0.00,,,0.22,,2013-02-03 12:01:00,
2013-02-03 13:06:00,46.2,38.3,29.67,ENE,67,2.6,5.3,74,0.00,,,0.22,,2013-02-03 12:06:00,
2013-02-03 13:11:00,46.2,37.6,29.67,ENE,67,4.9,6.7,72,0.00,,,0.22,,2013-02-03 12:11:00,
2013-02-03 13:16:00,46.2,37.2,29.64,NE,45,3.1,3.5,71,0.00,,,0.22,,2013-02-03 12:16:00,
2013-02-03 13:21:00,46.4,37.4,29.64,NE,45,2.6,6.2,71,0.00,,,0.22,,2013-02-03 12:21:00,
2013-02-03 13:26:00,46.4,37.0,29.64,East,90,3.5,6.2,70,0.00,,,0.22,,2013-02-03 12:26:00,
2013-02-03 13:31:00,46.4,36.7,29.64,NE,45,3.1,8.9,69,0.00,,,0.22,,2013-02-03 12:31:00,
2013-02-03 13:36:00,46.6,36.5,29.64,North,0,3.1,4.4,68,0.00,,,0.22,,2013-02-03 12:36:00,
2013-02-03 13:41:00,46.6,36.5,29.64,NNE,22,2.6,6.2,68,0.00,,,0.22,,2013-02-03 12:41:00,
2013-02-03 13:46:00,46.6,36.1,29.64,ESE,112,2.6,5.3,67,0.00,,,0.22,,2013-02-03 12:46:00,
2013-02-03 13:51:00,46.8,36.7,29.64,NE,45,2.6,5.8,68,0.00,,,0.22,,2013-02-03 12:51:00,
2013-02-03 13:56:00,46.8,36.3,29.67,NE,45,3.5,4.0,67,0.00,,,0.22,,2013-02-03 12:56:00,
2013-02-03 14:01:00,46.6,36.5,29.67,NE,45,3.5,4.0,68,0.00,,,0.22,,2013-02-03 13:01:00,
2013-02-03 14:11:00,46.8,36.7,29.67,ENE,67,2.2,2.2,68,0.00,,,0.22,,2013-02-03 13:11:00,
2013-02-03 14:16:00,46.8,36.7,29.70,NE,45,3.5,5.3,68,0.00,,,0.22,,2013-02-03 13:16:00,
2013-02-03 14:21:00,46.8,36.7,29.70,NE,45,1.7,3.1,68,0.00,,,0.22,,2013-02-03 13:21:00,
2013-02-03 14:26:00,46.8,36.7,29.67,ENE,67,2.6,2.6,68,0.00,,,0.22,,2013-02-03 13:26:00,
2013-02-03 14:31:00,46.8,37.0,29.67,NE,45,2.6,6.2,69,0.00,,,0.22,,2013-02-03 13:31:00,
2013-02-03 14:36:00,46.8,37.0,29.67,ENE,67,1.7,1.7,69,0.00,,,0.22,,2013-02-03 13:36:00,
2013-02-03 14:41:00,46.9,37.2,29.67,NE,45,1.3,1.7,69,0.00,,,0.22,,2013-02-03 13:41:00,
2013-02-03 14:46:00,46.9,37.2,29.70,ENE,67,1.3,4.0,69,0.00,,,0.22,,2013-02-03 13:46:00,
2013-02-03 14:51:00,46.9,36.9,29.70,NE,45,0.4,0.4,68,0.00,,,0.22,,2013-02-03 13:51:00,
2013-02-03 14:56:00,47.1,37.0,29.73,East,90,1.7,5.3,68,0.00,,,0.22,,2013-02-03 13:56:00,
2013-02-03 15:01:00,47.1,37.0,29.73,ESE,112,0.8,2.2,68,0.00,,,0.22,,2013-02-03 14:01:00,
2013-02-03 15:11:00,47.3,36.9,29.73,NE,45,1.7,2.2,67,0.00,,,0.22,,2013-02-03 14:11:00,
2013-02-03 15:16:00,47.3,36.5,29.73,NE,45,1.7,2.6,66,0.00,,,0.22,,2013-02-03 14:16:00,
2013-02-03 15:21:00,47.1,36.3,29.73,NE,45,1.3,3.5,66,0.00,,,0.22,,2013-02-03 14:21:00,
2013-02-03 15:26:00,47.3,36.5,29.73,NE,45,0.8,2.2,66,0.00,,,0.22,,2013-02-03 14:26:00,
2013-02-03 15:31:00,47.3,36.5,29.73,NE,45,0.4,1.3,66,0.00,,,0.22,,2013-02-03 14:31:00,
2013-02-03 15:41:00,47.5,36.7,29.73,East,90,0.8,2.6,66,0.00,,,0.22,,2013-02-03 14:41:00,
2013-02-03 15:46:00,47.5,36.1,29.73,NE,45,0.8,3.5,65,0.00,,,0.22,,2013-02-03 14:46:00,
2013-02-03 15:51:00,47.3,36.0,29.73,NE,45,0.4,1.3,65,0.00,,,0.22,,2013-02-03 14:51:00,
2013-02-03 15:56:00,47.3,36.0,29.76,East,90,1.7,1.7,65,0.00,,,0.22,,2013-02-03 14:56:00,
2013-02-03 16:01:00,47.3,35.6,29.76,East,90,1.3,3.5,64,0.00,,,0.22,,2013-02-03 15:01:00,
2013-02-03 16:06:00,47.1,35.4,29.76,East,90,1.7,1.7,64,0.00,,,0.22,,2013-02-03 15:06:00,
2013-02-03 16:11:00,47.5,36.1,29.76,East,90,1.3,1.7,65,0.00,,,0.22,,2013-02-03 15:11:00,
2013-02-03 16:16:00,48.0,36.7,29.73,East,90,1.3,2.2,65,0.00,,,0.22,,2013-02-03 15:16:00,
2013-02-03 16:21:00,48.2,36.5,29.73,NE,45,0.0,0.8,64,0.00,,,0.22,,2013-02-03 15:21:00,
2013-02-03 16:26:00,48.0,36.0,29.73,NE,45,1.3,3.5,63,0.00,,,0.22,,2013-02-03 15:26:00,
2013-02-03 16:31:00,47.8,35.8,29.73,NE,45,0.8,0.8,63,0.00,,,0.22,,2013-02-03 15:31:00,
2013-02-03 16:36:00,47.5,35.8,29.73,NE,45,0.4,2.6,64,0.00,,,0.22,,2013-02-03 15:36:00,
2013-02-03 16:41:00,47.1,35.4,29.73,East,90,0.4,0.4,64,0.00,,,0.22,,2013-02-03 15:41:00,
2013-02-03 16:46:00,46.9,35.2,29.76,East,90,0.4,0.4,64,0.00,,,0.22,,2013-02-03 15:46:00,
2013-02-03 16:51:00,46.9,35.2,29.76,NE,45,0.8,2.2,64,0.00,,,0.22,,2013-02-03 15:51:00,
2013-02-03 16:56:00,46.9,35.2,29.76,NE,45,1.3,1.3,64,0.00,,,0.22,,2013-02-03 15:56:00,
2013-02-03 17:01:00,46.6,34.5,29.76,East,90,1.7,3.5,63,0.00,,,0.22,,2013-02-03 16:01:00,
2013-02-03 17:06:00,46.4,34.3,29.76,East,90,0.8,4.0,63,0.00,,,0.22,,2013-02-03 16:06:00,
2013-02-03 17:11:00,46.2,34.2,29.76,ENE,67,1.3,4.4,63,0.00,,,0.22,,2013-02-03 16:11:00,
2013-02-03 17:16:00,45.9,34.3,29.76,NE,45,2.2,3.1,64,0.00,,,0.22,,2013-02-03 16:16:00,
2013-02-03 17:21:00,45.3,34.2,29.76,NE,45,2.6,4.0,65,0.00,,,0.22,,2013-02-03 16:21:00,
2013-02-03 17:26:00,45.0,34.2,29.79,NE,45,1.3,1.3,66,0.00,,,0.22,,2013-02-03 16:26:00,
2013-02-03 17:31:00,44.8,34.3,29.79,NE,45,0.8,3.5,67,0.00,,,0.22,,2013-02-03 16:31:00,
2013-02-03 17:36:00,44.6,34.2,29.79,NE,45,2.6,4.4,67,0.00,,,0.22,,2013-02-03 16:36:00,
2013-02-03 17:41:00,44.2,33.8,29.79,NE,45,2.6,3.1,67,0.00,,,0.22,,2013-02-03 16:41:00,
2013-02-03 17:46:00,44.2,33.4,29.79,ENE,67,2.2,4.4,66,0.00,,,0.22,,2013-02-03 16:46:00,
2013-02-03 17:51:00,44.1,33.3,29.79,East,90,2.6,3.1,66,0.00,,,0.22,,2013-02-03 16:51:00,
2013-02-03 17:56:00,43.9,33.1,29.79,NE,45,1.7,3.5,66,0.00,,,0.22,,2013-02-03 16:56:00,
2013-02-03 18:01:00,43.9,33.1,29.79,NE,45,1.7,3.5,66,0.00,,,0.22,,2013-02-03 17:01:00,
2013-02-03 18:06:00,43.7,32.9,29.79,ENE,67,3.1,4.9,66,0.00,,,0.22,,2013-02-03 17:06:00,
2013-02-03 18:11:00,43.7,32.9,29.79,NNE,22,2.2,3.5,66,0.00,,,0.22,,2013-02-03 17:11:00,
2013-02-03 18:16:00,43.5,32.4,29.82,East,90,2.6,4.0,65,0.00,,,0.22,,2013-02-03 17:16:00,
2013-02-03 18:21:00,43.5,32.4,29.82,ENE,67,1.7,3.1,65,0.00,,,0.22,,2013-02-03 17:21:00,
2013-02-03 18:26:00,43.3,32.7,29.82,East,90,0.8,0.0,66,0.00,,,0.22,,2013-02-03 17:26:00,
2013-02-03 18:31:00,43.0,32.4,29.82,East,90,0.4,0.8,66,0.00,,,0.22,,2013-02-03 17:31:00,
2013-02-03 18:36:00,42.6,32.0,29.82,ESE,112,0.8,1.7,66,0.00,,,0.22,,2013-02-03 17:36:00,
2013-02-03 18:41:00,42.6,32.4,29.82,SE,135,1.3,4.4,67,0.00,,,0.22,,2013-02-03 17:41:00,
2013-02-03 18:46:00,42.6,32.7,29.85,East,90,0.4,1.7,68,0.00,,,0.22,,2013-02-03 17:46:00,
2013-02-03 18:51:00,42.4,32.5,29.85,East,90,0.0,0.0,68,0.00,,,0.22,,2013-02-03 17:51:00,
2013-02-03 18:56:00,42.4,32.5,29.85,NE,45,1.3,2.6,68,0.00,,,0.22,,2013-02-03 17:56:00,
2013-02-03 19:01:00,42.1,32.5,29.85,NNE,22,2.2,2.6,69,0.00,,,0.22,,2013-02-03 18:01:00,
2013-02-03 19:06:00,42.1,32.9,29.85,ENE,67,1.3,2.6,70,0.00,,,0.22,,2013-02-03 18:06:00,
2013-02-03 19:11:00,42.1,32.9,29.85,ENE,67,0.8,1.3,70,0.00,,,0.22,,2013-02-03 18:11:00,
2013-02-03 19:16:00,42.3,32.7,29.85,East,90,1.3,1.7,69,0.00,,,0.22,,2013-02-03 18:16:00,
2013-02-03 19:21:00,42.3,32.7,29.85,ENE,67,1.7,2.6,69,0.00,,,0.22,,2013-02-03 18:21:00,
2013-02-03 19:26:00,42.1,32.5,29.88,East,90,1.7,4.0,69,0.00,,,0.22,,2013-02-03 18:26:00,
2013-02-03 19:31:00,42.3,32.4,29.88,NE,45,1.7,1.7,68,0.00,,,0.22,,2013-02-03 18:31:00,
2013-02-03 19:36:00,42.3,32.0,29.88,ENE,67,2.2,2.2,67,0.00,,,0.22,,2013-02-03 18:36:00,
2013-02-03 19:41:00,42.3,31.6,29.88,NE,45,2.6,4.4,66,0.00,,,0.22,,2013-02-03 18:41:00,
2013-02-03 19:46:00,42.3,31.6,29.88,ENE,67,1.3,1.3,66,0.00,,,0.22,,2013-02-03 18:46:00,
2013-02-03 19:51:00,42.3,31.6,29.88,SE,135,0.8,0.0,66,0.00,,,0.22,,2013-02-03 18:51:00,
2013-02-03 19:56:00,42.1,31.5,29.85,ENE,67,1.3,2.6,66,0.00,,,0.22,,2013-02-03 18:56:00,
2013-02-03 20:01:00,41.5,31.6,29.85,NE,45,2.2,2.2,68,0.00,,,0.22,,2013-02-03 19:01:00,
2013-02-03 20:06:00,41.0,31.8,29.88,NE,45,2.6,3.1,70,0.00,,,0.22,,2013-02-03 19:06:00,
2013-02-03 20:11:00,40.6,31.8,29.88,NE,45,2.6,3.1,71,0.00,,,0.22,,2013-02-03 19:11:00,
2013-02-03 20:16:00,40.5,32.0,29.88,NE,45,1.3,3.1,72,0.00,,,0.22,,2013-02-03 19:16:00,
2013-02-03 20:21:00,40.5,32.0,29.88,NE,45,0.4,0.0,72,0.00,,,0.22,,2013-02-03 19:21:00,
2013-02-03 20:26:00,40.3,31.8,29.88,NE,45,0.4,1.3,72,0.00,,,0.22,,2013-02-03 19:26:00,
2013-02-03 20:31:00,40.3,32.2,29.88,NE,45,0.4,0.4,73,0.00,,,0.22,,2013-02-03 19:31:00,
2013-02-03 20:36:00,40.3,32.2,29.91,NE,45,1.3,2.6,73,0.00,,,0.22,,2013-02-03 19:36:00,
2013-02-03 20:41:00,39.9,31.8,29.91,NE,45,3.5,3.5,73,0.00,,,0.22,,2013-02-03 19:41:00,
2013-02-03 20:46:00,39.9,32.2,29.94,NE,45,3.1,4.9,74,0.00,,,0.22,,2013-02-03 19:46:00,
2013-02-03 20:51:00,40.5,32.4,29.94,NE,45,5.8,8.9,73,0.00,,,0.22,,2013-02-03 19:51:00,
2013-02-03 20:56:00,40.8,32.7,29.91,NE,45,3.5,6.2,73,0.00,,,0.22,,2013-02-03 19:56:00,
2013-02-03 21:01:00,40.6,32.5,29.91,NE,45,3.5,4.9,73,0.00,,,0.22,,2013-02-03 20:01:00,
2013-02-03 21:06:00,40.3,32.2,29.91,NE,45,4.9,6.2,73,0.00,,,0.22,,2013-02-03 20:06:00,
2013-02-03 21:11:00,40.1,32.0,29.91,NE,45,5.8,5.8,73,0.00,,,0.22,,2013-02-03 20:11:00,
2013-02-03 21:16:00,40.1,32.7,29.94,NE,45,4.0,4.4,75,0.00,,,0.22,,2013-02-03 20:16:00,
2013-02-03 21:21:00,40.1,33.1,29.94,NE,45,3.1,5.3,76,0.00,,,0.22,,2013-02-03 20:21:00,
2013-02-03 21:26:00,40.1,33.1,29.94,NE,45,2.6,4.4,76,0.00,,,0.22,,2013-02-03 20:26:00,
2013-02-03 21:31:00,40.1,33.1,29.94,NE,45,2.2,4.0,76,0.00,,,0.22,,2013-02-03 20:31:00,
2013-02-03 21:36:00,39.9,32.9,29.94,NE,45,2.2,3.5,76,0.00,,,0.22,,2013-02-03 20:36:00,
2013-02-03 21:41:00,39.9,32.9,29.94,NE,45,2.2,3.1,76,0.00,,,0.22,,2013-02-03 20:41:00,
2013-02-03 21:46:00,39.7,32.7,29.94,NE,45,2.6,3.5,76,0.00,,,0.22,,2013-02-03 20:46:00,
2013-02-03 21:51:00,39.7,32.7,29.94,NE,45,3.5,5.8,76,0.00,,,0.22,,2013-02-03 20:51:00,
2013-02-03 21:56:00,39.6,32.9,29.91,NE,45,3.1,3.1,77,0.00,,,0.22,,2013-02-03 20:56:00,
2013-02-03 22:01:00,39.7,33.1,29.91,NE,45,1.7,1.7,77,0.00,,,0.22,,2013-02-03 21:01:00,
2013-02-03 22:06:00,39.4,32.4,29.94,NE,45,4.4,8.9,76,0.00,,,0.22,,2013-02-03 21:06:00,
2013-02-03 22:11:00,39.0,32.4,29.94,NE,45,2.6,2.6,77,0.00,,,0.22,,2013-02-03 21:11:00,
2013-02-03 22:16:00,39.0,32.4,29.94,NE,45,2.2,4.0,77,0.00,,,0.22,,2013-02-03 21:16:00,
2013-02-03 22:21:00,39.0,32.4,29.94,NNE,22,2.2,4.0,77,0.00,,,0.22,,2013-02-03 21:21:00,
2013-02-03 22:31:00,39.2,29.8,29.94,NE,45,4.9,5.8,69,0.00,,,0.22,,2013-02-03 21:31:00,
2013-02-03 22:36:00,39.4,29.7,29.94,NE,45,4.4,4.4,68,0.00,,,0.22,,2013-02-03 21:36:00,
2013-02-03 22:41:00,39.4,28.6,29.94,NNE,22,4.4,6.2,65,0.00,,,0.22,,2013-02-03 21:41:00,
2013-02-03 22:46:00,39.2,28.8,29.97,NE,45,2.6,2.6,66,0.00,,,0.22,,2013-02-03 21:46:00,
2013-02-03 22:51:00,38.8,28.4,29.97,NE,45,3.5,4.9,66,0.00,,,0.22,,2013-02-03 21:51:00,
2013-02-03 22:56:00,38.8,28.8,29.94,ENE,67,0.8,2.2,67,0.00,,,0.22,,2013-02-03 21:56:00,
2013-02-03 23:01:00,38.8,28.8,29.94,NE,45,1.7,5.3,67,0.00,,,0.22,,2013-02-03 22:01:00,
2013-02-03 23:06:00,38.8,28.8,29.94,NE,45,2.2,2.2,67,0.00,,,0.22,,2013-02-03 22:06:00,
2013-02-03 23:11:00,38.8,28.4,29.94,NE,45,2.2,2.2,66,0.00,,,0.22,,2013-02-03 22:11:00,
2013-02-03 23:16:00,38.8,28.4,29.97,NE,45,2.6,2.6,66,0.00,,,0.22,,2013-02-03 22:16:00,
2013-02-03 23:21:00,38.8,28.4,29.97,NE,45,1.7,2.2,66,0.00,,,0.22,,2013-02-03 22:21:00,
2013-02-03 23:26:00,38.8,28.0,29.97,NE,45,3.5,4.4,65,0.00,,,0.22,,2013-02-03 22:26:00,
2013-02-03 23:31:00,38.7,27.9,29.97,NE,45,4.4,4.4,65,0.00,,,0.22,,2013-02-03 22:31:00,
2013-02-03 23:36:00,38.8,27.7,29.97,NE,45,4.4,5.3,64,0.00,,,0.22,,2013-02-03 22:36:00,
2013-02-03 23:41:00,39.0,27.3,29.97,NE,45,4.4,5.3,63,0.00,,,0.22,,2013-02-03 22:41:00,
2013-02-03 23:46:00,39.0,27.0,29.94,NE,45,4.4,4.4,62,0.00,,,0.22,,2013-02-03 22:46:00,
2013-02-03 23:51:00,39.0,27.3,29.94,NE,45,3.5,5.3,63,0.00,,,0.22,,2013-02-03 22:51:00,
2013-02-03 23:56:00,39.0,27.0,29.97,NE,45,4.0,4.0,62,0.00,,,0.22,,2013-02-03 22:56:00,